Tiempo atmosférico en la estación meteorológica de Madrid Aeropuerto, Madrid (609 m.)



Fecha
DESCASC
Temp. máxima en grados centígrados (hora)
DESCASC
Temp. mínima en grados centígrados (hora)
DESCASC
Temp. media en grados centígrados
DESCASC
Racha de viento máxima en m/sg (hora)
DESCASC
Velocidad máxima media en intervalos de 10 minutos(hora)
DESCASC
Precipitaciones diarias en mm
DESCASC
Precipitaciones de 00:00 a 06:00 en mm
DESCASC
Precipitaciones de 06:00 a 12:00 en mm
DESCASC
Precipitaciones de 12:00 a 18:00 en mm
DESCASC
Precipitaciones de 18:00 a 24:00 en mm
DESCASC
12-01-2021 1 (16:30) -13.4 (-00:0) -6.2 3.61 (16:20) 2.22 (16:50) 0 0 0 0 0
13-01-2021 3.4 (15:40) -12.2 (-00:0) -4.4 3.06 (14:30) 2.5 (15:50) 0 0 0 0 0
14-01-2021 4.4 (15:20) -10.9 (08:40) -3.2 3.61 (15:40) 2.5 (15:40) 0 0 0 0 0
17-01-2021 6 (15:00) -10.1 (-00:0) -2.1 4.17 (12:40) 2.5 (22:00) 0 0 0 0 0
11-01-2021 6.1 (17:10) -10.1 (-00:0) -2 4.17 (00:30) 3.33 (00:30) 0 0 0 0 0
15-01-2021 6.9 (16:50) -9.4 (-00:0) -1.2 3.61 (13:30) 3.06 (13:50) 0 0 0 0 0
16-01-2021 5.9 (15:20) -9.3 (-00:0) -1.7 4.72 (15:50) 3.33 (15:50) 0 0 0 0 0
18-01-2021 9.5 (16:30) -7.7 (-00:0) 0.9 3.61 (21:40) 2.5 (01:40) 0 0 0 0 0
19-01-2021 7.7 (15:50) -7.7 (-00:0) 0 3.61 (16:10) 2.78 (16:10) 0 0 0 0 0
06-01-2021 7.1 (16:30) -6.9 (-00:0) 0.1 5.83 (23:40) 3.61 (23:50) 0 0 0 0 0
05-01-2021 6.7 (15:50) -6.3 (-00:0) 0.2 4.72 (14:10) 2.5 (14:10) 0 0 0 0 0
03-01-2021 8.7 (15:00) -5 (-00:0) 1.8 9.72 (16:00) 6.11 (19:40) 0 0 0 0 0
27-12-2020 7.1 (15:00) -4.7 (-00:0) 1.2 18.06 (23:10) 12.5 (23:10) 0 0 0 0 0
07-01-2021 2 (11:30) -4.4 (-00:0) -1.2 6.67 (09:20) 3.61 (09:20) 3.4 0 0 3.4 0
08-01-2021 0.6 (14:20) -4.4 (-00:0) -1.9 10.28 (23:40) 5.83 (18:10) 14.7 0 0 5.8 8.9
31-12-2020 8.5 (15:40) -4.2 (-00:0) 2.2 13.33 (17:30) 7.5 (20:00) 1.1 0 0 0.3 0.8
10-01-2021 4.1 (15:10) -3.5 (06:40) 0.3 9.72 (11:20) 5 (11:00) 0 0 0 0 0
02-01-2021 5.7 (13:20) -3.3 (-00:0) 1.2 10.83 (14:10) 7.5 (14:10) 0 0 0 0 0
20-01-2021 5.7 (15:30) -3.1 (-00:0) 1.3 6.11 (19:40) 3.61 (18:50) 2.6 0 1.3 0.5 0.8
26-12-2020 10 (15:50) -3 (-00:0) 3.5 6.67 (14:20) 4.17 (03:40) 0 0 0 0 0
04-01-2021 7.3 (15:30) -2.4 (-00:0) 2.5 10.28 (15:50) 7.5 (15:50) 0 0 0 0 0
09-01-2021 0.3 (23:10) -1.3 (-00:0) -0.5 13.89 (05:10) 7.22 (06:40) 20.1 5.5 4.5 10.1 0
30-12-2020 8.7 (14:50) -1.1 (-00:0) 3.8 11.39 (04:50) 8.61 (04:50) 0 0 0 0 0
25-12-2020 8.9 (14:10) -0.4 (00:00) 4.2 10.28 (15:50) 6.67 (14:40) 0 0 0 0 0
01-01-2021 7.3 (13:40) 0 (00:00) 3.7 15 (14:20) 10.83 (14:40) 0.2 0 0 0 0.2
29-12-2020 8.3 (13:20) 0.5 (00:00) 4.4 12.5 (17:20) 8.89 (17:20) 0 0 0 0 0
21-01-2021 10.4 (19:50) 3.5 (00:00) 6.9 16.11 (18:10) 9.72 (18:10) 0.5 0 0 0 0.5
28-12-2020 9.6 (15:50) 3.5 (00:00) 6.6 21.67 (06:00) 13.61 (06:00) 0.6 0.6 0 0 0
24-12-2020 11 (16:00) 5.3 (00:00) 8.2 8.89 (18:50) 5.83 (18:20) 0 0 0 0 0
23-12-2020 8.6 (18:00) 5.8 (00:00) 7.2 5.83 (12:30) 4.17 (12:20) 0 0 0 0 0

Gráficas

Temp. máximas Temp. mínimas Temp. medias Precipitaciones Rachas de viento máximas Velocidades máximas media en intervalos de 10 minutos

Datos horarios

Fecha y hora oficial Temperatura (ºC) Velocidad del viento (km/h) Dirección del viento Racha (km/h) Dirección de racha Precipitación (mm) Presión (hPa) Tendencia (hPa) Humedad (%)
2021-01-21 23:00:00 8.7 22 Sur 32 Sur 0.3 943.4 -- 96
2021-01-21 22:00:00 8.7 18 Sur 26 Sur 0.1 944.2 -- 95
2021-01-21 21:00:00 9.1 19 Sur 45 Sudoeste 0 944.7 -- 94
2021-01-21 20:00:00 10.4 33 Sudoeste 46 Sudoeste 0 944.8 -- 87
2021-01-21 19:00:00 9.9 27 Sudoeste 58 Sudoeste 0 945.1 -- 89
2021-01-21 18:00:00 10.1 32 Sudoeste 45 Sudoeste 0 944.8 -- 88
2021-01-21 17:00:00 8.9 19 Sur 41 Sudoeste 0 945 -- 93
2021-01-21 16:00:00 8.7 19 Sur 33 Sudoeste 0 945.1 -- 93
2021-01-21 15:00:00 9.8 33 Sudoeste 45 Sudoeste 0 945.2 -- 85
2021-01-21 14:00:00 8.6 17 Sur 37 Sudoeste 0 945.7 -- 86
2021-01-21 13:00:00 6.6 16 Sudeste 30 Sur 0 946.7 -- 92
2021-01-21 12:00:00 7.7 23 Sudoeste 33 Sudoeste 0 947.3 -- 90
2021-01-21 11:00:00 7.5 20 Sudoeste 39 Sudoeste 0 946.9 -- 89
2021-01-21 10:00:00 6.9 23 Sudoeste 35 Sudoeste 0 946.3 -- 91
2021-01-21 09:00:00 5.7 8 Sur 15 Sudoeste 0 946 -- 97
2021-01-21 08:00:00 6.1 6 Sudoeste 24 Sur 0 946 -- 92
2021-01-21 07:00:00 6.3 11 Sudoeste 30 Oeste 0 945.8 -- 94
2021-01-21 06:00:00 6 17 Sudoeste 33 Sudoeste 0 945.1 -- 94
2021-01-21 05:00:00 6.4 13 Sudoeste 26 Sudoeste 0 945 -- 95
2021-01-21 04:00:00 4.4 15 Sur 24 Sur 0 945 -- 96
2021-01-21 03:00:00 4.8 13 Sudeste 26 Sudoeste 0 944.4 -- 95
2021-01-21 02:00:00 5.8 17 Sur 24 Sudoeste 0 943.9 -- 95
2021-01-21 01:00:00 5.4 15 Sudoeste 22 Sudoeste 0 943.6 -- 98
2021-01-21 00:00:00 3.5 6 Sudeste 15 Sudoeste 0 943.6 -- 98
2021-01-20 23:00:00 4.3 8 Sur 15 Sur 0.2 942.8 -- 98
2021-01-20 22:00:00 3.1 2 Sudeste 13 Sudeste 0 942.6 -- 98
2021-01-20 21:00:00 2.8 3 Este 15 Noroeste 0.6 942.4 -- 98
2021-01-20 20:00:00 2.7 9 Norte 22 Noroeste 0 942 -- 98
2021-01-20 19:00:00 2.8 12 Norte 21 Norte 0 941.6 -- 98
2021-01-20 18:00:00 3.1 5 Norte 13 Norte 0.2 941.2 -- 97
2021-01-20 17:00:00 3 10 Noroeste 15 Noroeste 0 941.3 -- 95
2021-01-20 16:00:00 5.5 0 Calma 18 Norte 0 941.4 -- 92
2021-01-20 15:00:00 3.6 7 Norte 13 Noroeste 0 941.6 -- 96
2021-01-20 14:00:00 2.7 10 Noroeste 13 Norte 0.1 942.5 -- 97
2021-01-20 13:00:00 2.1 2 Norte 9 Norte 0.2 943.6 -- 96
2021-01-20 12:00:00 1.4 9 Noroeste 13 Noroeste 0.2 944.6 -- 96
2021-01-20 11:00:00 1.3 5 Norte 9 Norte 0 944.7 -- 96
2021-01-20 10:00:00 0.7 9 Norte 11 Norte 0.6 945.3 -- 97
2021-01-20 09:00:00 0.2 7 Noroeste 9 Noroeste 0.5 945.9 -- 95
2021-01-20 08:00:00 -0.2 6 Noroeste 11 Norte 0 946 -- 94
2021-01-20 07:00:00 -0.5 4 Norte 9 Nordeste 0 946.3 -- 95
2021-01-20 06:00:00 -0.9 4 Norte 8 Norte 0 947 -- 94
2021-01-20 05:00:00 -1.4 3 Norte 8 Norte 0 948 -- 95
2021-01-20 04:00:00 -1.9 3 Norte 8 Nordeste 0 949.1 -- 96
2021-01-20 03:00:00 -2.7 2 Oeste 8 Norte 0 949.6 -- 94
2021-01-20 02:00:00 -2.5 6 Norte -- -- 0 950.1 -- 96
2021-01-20 01:00:00 -2.3 6 Norte 9 Noroeste 0 951.3 -- 96
2021-01-20 00:00:00 -2 5 Norte 9 Norte 0 951.7 -- 95
2021-01-19 23:00:00 -1.3 8 Norte 9 Norte 0 952 -- 95
2021-01-19 22:00:00 -0.7 8 Norte 9 Norte 0 952.4 -- 94
2021-01-19 21:00:00 -0.3 4 Noroeste 9 Norte 0 952.9 -- 91
2021-01-19 20:00:00 1.1 0 Calma 9 Sudoeste 0 953.3 -- 87
2021-01-19 19:00:00 3.5 7 Sur 11 Sur 0 953.3 -- 78
2021-01-19 18:00:00 4.9 4 Sudeste 8 Sur 0 953.4 -- 71
2021-01-19 17:00:00 6 5 Sudeste 13 Sudeste 0 953.8 -- 68
2021-01-19 16:00:00 7 9 Sudeste 11 Sudeste 0 954.2 -- 63
2021-01-19 15:00:00 6.8 5 Sur 8 Sur 0 954.7 -- 64
2021-01-19 14:00:00 4.5 3 Oeste 11 Oeste 0 955.6 -- 71
2021-01-19 13:00:00 1.6 5 Noroeste 8 Noroeste 0 956.5 -- 79
2021-01-19 12:00:00 -0.5 2 Noroeste 11 Noroeste 0 957.8 -- 83
2021-01-19 11:00:00 -2.4 5 Norte 9 Norte 0 958 -- 91
2021-01-19 10:00:00 -5.6 4 Norte 8 Norte 0 957.8 -- 94
2021-01-19 09:00:00 -7.2 5 Norte -- -- 0 958 -- 93
2021-01-19 08:00:00 -6.9 3 Noroeste -- -- 0 958 -- 95
2021-01-19 07:00:00 -7 0 Calma 5 Norte 0 958 -- 97
2021-01-19 06:00:00 -6.2 -- -- -- -- 0 957.8 -- 94
2021-01-19 05:00:00 -5.7 3 Noroeste 5 Norte 0 958.1 -- 96
2021-01-19 04:00:00 -4.5 5 Norte 9 Norte 0 958.5 -- 96
2021-01-19 03:00:00 -4.1 3 Norte -- -- 0 958.6 -- 95
2021-01-19 02:00:00 -3.4 4 Norte -- -- 0 959 -- 97
2021-01-19 01:00:00 -2.6 -- -- -- -- 0 959.3 -- 95
2021-01-19 00:00:00 -2.1 8 Norte 9 Norte 0 959.4 -- 95
2021-01-18 23:00:00 -1.4 7 Norte 11 Norte 0 959.2 -- 94
2021-01-18 22:00:00 -0.8 6 Norte 13 Noroeste 0 959.3 -- 92
2021-01-18 21:00:00 0.1 7 Norte 9 Norte 0 959.2 -- 90
2021-01-18 20:00:00 2.7 5 Sur 9 Sudeste 0 958.9 -- 78
2021-01-18 19:00:00 4 5 Sudeste 8 Sudeste 0 958.7 -- 73
2021-01-18 18:00:00 6.8 4 Sudeste 9 Sur 0 958.2 -- 65
2021-01-18 17:00:00 8.7 5 Sudeste 8 Este 0 957.9 -- 58
2021-01-18 16:00:00 8.8 0 Calma 9 Sudoeste 0 958 -- 57
2021-01-18 15:00:00 7.4 4 Sudoeste 11 Oeste 0 958.5 -- 58
2021-01-18 14:00:00 3.7 3 Noroeste 8 Oeste 0 959.2 -- 70
2021-01-18 13:00:00 1.7 0 Calma 8 Noroeste 0 959.9 -- 76
2021-01-18 12:00:00 -0.9 4 Noroeste 8 Noroeste 0 960.9 -- 84
2021-01-18 11:00:00 -3.5 0 Calma 5 Noroeste 0 960.9 -- 86
2021-01-18 10:00:00 -4.3 0 Calma 5 Nordeste 0 960.4 -- 93
2021-01-18 09:00:00 -7.2 4 Norte -- -- 0 960.2 -- 92
2021-01-18 08:00:00 -6.6 3 Noroeste 9 Norte 0 960.1 -- 90
2021-01-18 07:00:00 -6.5 4 Norte 8 Norte 0 959.7 -- 93
2021-01-18 06:00:00 -7.3 5 Noroeste 8 Noroeste 0 959.3 -- 89
2021-01-18 05:00:00 -6.1 3 Norte 8 Noroeste 0 959.5 -- 91
2021-01-18 04:00:00 -5.1 7 Noroeste 11 Noroeste 0 959.7 -- 91
2021-01-18 03:00:00 -5 6 Norte 9 Noroeste 0 959.8 -- 90
2021-01-18 02:00:00 -4.3 6 Norte 11 Noroeste 0 959.9 -- 90
2021-01-18 01:00:00 -3.6 7 Norte 9 Norte 0 960.2 -- 89
2021-01-18 00:00:00 -3.8 6 Norte 8 Norte 0 960.5 -- 88
2021-01-17 23:00:00 -3.2 3 Norte 9 Norte 0 960.3 -- 85
2021-01-17 22:00:00 -2.3 9 Norte 11 Norte 0 960.2 -- 84
2021-01-17 21:00:00 -1.5 4 Noroeste 8 Noroeste 0 960.3 -- 78
2021-01-17 20:00:00 -0.7 2 Norte 5 Norte 0 960.4 -- 76
2021-01-17 19:00:00 0.7 3 Sudeste 5 Sudeste 0 960.1 -- 70
2021-01-17 18:00:00 4.4 6 Sudeste 8 Sudeste 0 959.6 -- 57
2021-01-17 17:00:00 5.5 5 Sudeste 9 Sudeste 0 959.5 -- 49
2021-01-17 16:00:00 5.5 6 Sudeste 11 Sur 0 959.5 -- 48
2021-01-17 15:00:00 5.8 4 Sudeste 11 Sudoeste 0 959.6 -- 43
2021-01-17 14:00:00 3.8 3 Sur 8 Oeste 0 960.4 -- 54
2021-01-17 13:00:00 1 4 Sudoeste 15 Sudoeste 0 961.6 -- 62
2021-01-17 12:00:00 -1.3 4 Norte 8 Nordeste 0 962.6 -- 72
2021-01-17 11:00:00 -4.8 0 Calma 8 Norte 0 962.2 -- 85
2021-01-17 10:00:00 -7.4 4 Norte 8 Noroeste 0 962 -- 93
2021-01-17 09:00:00 -9.3 5 Norte 8 Norte 0 961.6 -- 92
2021-01-17 08:00:00 -8.8 5 Nordeste 8 Nordeste 0 961.3 -- 91
2021-01-17 07:00:00 -8 8 Norte 9 Norte 0 961.2 -- 92
2021-01-17 06:00:00 -8.2 -- -- -- -- 0 960.8 -- 93
2021-01-17 05:00:00 -7.6 4 Nordeste 8 Norte 0 960.9 -- 92
2021-01-17 04:00:00 -6.3 6 Norte -- -- 0 961.2 -- 94
2021-01-17 03:00:00 -6.5 5 Norte 8 Norte 0 961.1 -- 92
2021-01-17 02:00:00 -6.1 3 Norte 9 Norte 0 961.5 -- 94
2021-01-17 01:00:00 -5.3 5 Norte 8 Norte 0 961.9 -- 93
2021-01-17 00:00:00 -4.3 -- -- -- -- 0 961.9 -- 94
2021-01-16 23:00:00 -4 5 Norte -- -- 0 961.7 -- 93
2021-01-16 22:00:00 -3 4 Noroeste 8 Noroeste 0 961.3 -- 90
2021-01-16 21:00:00 -2.5 2 Oeste 9 Noroeste 0 961.2 -- 90
2021-01-16 20:00:00 -1 3 Sudeste 8 Sudeste 0 960.8 -- 86
2021-01-16 19:00:00 0.9 5 Sudeste 8 Sudeste 0 960.4 -- 76
2021-01-16 18:00:00 3 6 Sudeste 9 Sudeste 0 960 -- 71
2021-01-16 17:00:00 4.8 8 Sudeste 11 Sudeste 0 959.6 -- 62
2021-01-16 16:00:00 4.8 11 Sudeste 17 Sudeste 0 959.3 -- 63
2021-01-16 15:00:00 3.5 5 Noroeste 11 Noroeste 0 959.1 -- 69
2021-01-16 14:00:00 3.5 0 Calma 5 Sudeste 0 959.7 -- 63
2021-01-16 13:00:00 2.3 2 Sur 8 Sudoeste 0 960.5 -- 64
2021-01-16 12:00:00 -1.1 2 Sudoeste 11 Sudoeste 0 961.1 -- 76
2021-01-16 11:00:00 -4.1 2 Norte 5 Norte 0 960.8 -- 87
2021-01-16 10:00:00 -6.4 0 Calma 5 Noroeste 0 960.4 -- 93
2021-01-16 09:00:00 -9.2 0 Calma 5 Norte 0 959.8 -- 90
2021-01-16 08:00:00 -8.9 2 Norte 5 Norte 0 959.4 -- 91
2021-01-16 07:00:00 -8.5 0 Calma 4 Noroeste 0 959.2 -- 92
2021-01-16 06:00:00 -7.9 0 Calma 11 Sudoeste 0 959 -- 93
2021-01-16 05:00:00 -7.5 0 Calma 5 Norte 0 959 -- 93
2021-01-16 04:00:00 -7.3 2 Sur 4 Sur 0 958.9 -- 95
2021-01-16 03:00:00 -6.7 0 Calma 4 Este 0 958.9 -- 94
2021-01-16 02:00:00 -5.5 3 Noroeste 8 Noroeste 0 958.9 -- 96
2021-01-16 01:00:00 -4.7 5 Norte 9 Nordeste 0 959.3 -- 95
2021-01-16 00:00:00 -4.7 -- -- -- -- 0 959.4 -- 95
2021-01-15 23:00:00 -4.1 5 Norte 9 Norte 0 959.2 -- 94
2021-01-15 22:00:00 -3 0 Calma 5 Sudeste 0 959 -- 94
2021-01-15 21:00:00 -1.8 4 Sudeste 9 Este 0 959.1 -- 90
2021-01-15 20:00:00 -1.1 4 Este 8 Sudeste 0 959 -- 87
2021-01-15 19:00:00 1.3 6 Sudeste 11 Este 0 958.6 -- 77
2021-01-15 18:00:00 3.5 4 Sudeste 9 Sudeste 0 958.3 -- 69
2021-01-15 17:00:00 6.3 4 Este 8 Sudoeste 0 958.4 -- 59
2021-01-15 16:00:00 5.2 3 Sudeste 9 Sudeste 0 958.5 -- 62
2021-01-15 15:00:00 3.2 7 Sudeste 13 Sudeste 0 958.6 -- 69
2021-01-15 14:00:00 2.2 10 Sudeste 13 Sudeste 0 959.2 -- 70
2021-01-15 13:00:00 1.9 8 Sudeste 11 Nordeste 0 959.7 -- 70
2021-01-15 12:00:00 -1.1 7 Sudeste 9 Sudeste 0 960.4 -- 75
2021-01-15 11:00:00 -5.2 0 Calma 5 Noroeste 0 960.6 -- 87
2021-01-15 10:00:00 -6.6 0 Calma 5 Norte 0 960.3 -- 92
2021-01-15 09:00:00 -8.9 5 Noroeste 9 Norte 0 959.9 -- 91
2021-01-15 08:00:00 -8.1 0 Calma 9 Sudoeste 0 959.2 -- 93
2021-01-15 07:00:00 -8.6 2 Sur 9 Norte 0 959.2 -- 91
2021-01-15 06:00:00 -8.3 6 Norte 9 Norte 0 959 -- 90
2021-01-15 05:00:00 -7.2 4 Norte 8 Nordeste 0 958.9 -- 92
2021-01-15 04:00:00 -7.2 0 Calma 8 Sur 0 959.1 -- 92
2021-01-15 03:00:00 -6.5 4 Sudeste 8 Sudeste 0 959.1 -- 88
2021-01-15 02:00:00 -5.2 4 Sudeste 8 Sudeste 0 959.1 -- 88
2021-01-15 01:00:00 -4.9 5 Sudeste 11 Sudeste 0 959.3 -- 85
2021-01-15 00:00:00 -4.3 6 Sudeste 11 Sudeste 0 959.3 -- 87
2021-01-14 23:00:00 -3.4 9 Sudeste 13 Sudeste 0 959.2 -- 85
2021-01-14 22:00:00 -2.9 4 Sur 11 Sur 0 958.8 -- 81
2021-01-14 21:00:00 -2.1 6 Sudeste 13 Sur 0 958.8 -- 79
2021-01-14 20:00:00 -2 8 Sudeste 9 Sudeste 0 958.3 -- 79
2021-01-14 19:00:00 -1.4 0 Calma 4 Sudeste 0 958.1 -- 75
2021-01-14 18:00:00 1.5 2 Norte 4 Norte 0 957.8 -- 65
2021-01-14 17:00:00 3.7 4 Sudeste 9 Sur 0 957.5 -- 53
2021-01-14 16:00:00 3.4 6 Sudeste 13 Sudeste 0 957.5 -- 57
2021-01-14 15:00:00 2.8 3 Oeste 9 Sudoeste 0 957.4 -- 57
2021-01-14 14:00:00 -0.6 4 Noroeste 5 Noroeste 0 958 -- 70
2021-01-14 13:00:00 -2 3 Noroeste 8 Noroeste 0 958.8 -- 75
2021-01-14 12:00:00 -4.7 0 Calma 5 Norte 0 959.6 -- 79
2021-01-14 11:00:00 -6.6 0 Calma 8 Noroeste 0 959.7 -- 85
2021-01-14 10:00:00 -8.9 0 Calma 5 Norte 0 959.5 -- 91
2021-01-14 09:00:00 -10.7 0 Calma 5 Norte 0 959.3 -- 90
2021-01-14 08:00:00 -10 6 Norte -- -- 0 959.2 -- 91
2021-01-14 07:00:00 -9.6 5 Norte 8 Noroeste 0 959.1 -- 92
2021-01-14 06:00:00 -9.7 5 Noroeste -- -- 0 959.1 -- 90
2021-01-14 05:00:00 -8.7 4 Norte 8 Noroeste 0 959.4 -- 91
2021-01-14 04:00:00 -8.5 5 Noroeste 8 Noroeste 0 959.9 -- 92
2021-01-14 03:00:00 -8.1 6 Norte 8 Norte 0 960 -- 92
2021-01-14 02:00:00 -7.4 3 Norte 11 Norte 0 959.9 -- 91
2021-01-14 01:00:00 -7.3 -- -- -- -- 0 960.4 -- 92
2021-01-14 00:00:00 -5.3 7 Norte -- -- 0 960.7 -- 91
2021-01-13 23:00:00 -5.2 5 Norte 9 Norte 0 960.8 -- 91
2021-01-13 22:00:00 -4.5 5 Norte 9 Norte 0 960.7 -- 86
2021-01-13 21:00:00 -3.1 6 Norte 8 Norte 0 960.5 -- 84
2021-01-13 20:00:00 -2.9 3 Norte 5 Norte 0 960.3 -- 83
2021-01-13 19:00:00 -1.3 0 Calma 4 Nordeste 0 959.9 -- 73
2021-01-13 18:00:00 2.1 2 Sudoeste 11 Sudoeste 0 959.7 -- 59
2021-01-13 17:00:00 1.9 8 Sudeste -- -- 0 959.8 -- 60
2021-01-13 16:00:00 2.3 8 Sudeste 11 Sudeste 0 959.9 -- 58
2021-01-13 15:00:00 2.6 5 Sur 11 Sudoeste 0 959.9 -- 54
2021-01-13 14:00:00 0.2 3 Sur 9 Sur 0 960.7 -- 64
2021-01-13 13:00:00 -2.5 4 Noroeste 8 Norte 0 961.6 -- 69
2021-01-13 12:00:00 -5.5 3 Norte 8 Norte 0 962.4 -- 79
2021-01-13 11:00:00 -8.4 3 Noroeste 5 Oeste 0 962.5 -- 83
2021-01-13 10:00:00 -9.2 5 Norte 8 Norte 0 962.2 -- 89
2021-01-13 09:00:00 -11.9 0 Calma 8 Noroeste 0 961.4 -- 88
2021-01-13 08:00:00 -11.6 6 Noroeste 8 Noroeste 0 961.4 -- 89
2021-01-13 07:00:00 -11.7 -- -- -- -- 0 961.4 -- 88
2021-01-13 06:00:00 -11.1 8 Norte 9 Norte 0 961.2 -- 90
2021-01-13 05:00:00 -11.7 5 Noroeste 8 Noroeste 0 961.4 -- 89
2021-01-13 04:00:00 -10.4 6 Norte 9 Norte 0 961.5 -- 90
2021-01-13 03:00:00 -10.5 4 Noroeste 8 Noroeste 0 961.6 -- 90
2021-01-13 02:00:00 -9.5 6 Norte 8 Norte 0 961.7 -- 91
2021-01-13 01:00:00 -9 6 Norte 9 Norte 0 962.1 -- 91
2021-01-13 00:00:00 -8.4 5 Norte 9 Norte 0 962.2 -- 90
2021-01-12 23:00:00 -7.8 3 Norte 5 Noroeste 0 962 -- 90
2021-01-12 22:00:00 -6.8 5 Norte 8 Norte 0 961.9 -- 90
2021-01-12 21:00:00 -5.5 4 Norte 5 Norte 0 961.5 -- 89
2021-01-12 20:00:00 -4.7 2 Este 4 Este 0 961.2 -- 84
2021-01-12 19:00:00 -3.1 0 Calma -- -- 0 960.8 -- 77
2021-01-12 18:00:00 -0.3 4 Sudeste 8 Sudeste 0 960.6 -- 65
2021-01-12 17:00:00 0 7 Sudeste 13 Sur 0 960.2 -- 61
2021-01-12 16:00:00 0.7 6 Sur 11 Sur 0 960.1 -- 58
2021-01-12 15:00:00 0.2 7 Sudeste 9 Sudeste 0 960.1 -- 60
2021-01-12 14:00:00 -0.6 2 Sudoeste 11 Sudoeste 0 960.6 -- 61
2021-01-12 13:00:00 -2.9 2 Oeste 5 Norte 0 961.2 -- 70
2021-01-12 12:00:00 -5.1 0 Calma 5 Oeste 0 961.7 -- 73
2021-01-12 11:00:00 -8.1 3 Sur 5 Sur 0 961.7 -- 81
2021-01-12 10:00:00 -10.9 3 Norte 5 Norte 0 961 -- 88
2021-01-12 09:00:00 -12.4 -- -- -- -- 0 960.4 -- 89
2021-01-12 08:00:00 -12.6 3 Noroeste 4 Noroeste 0 960 -- 89
2021-01-12 07:00:00 -12.1 4 Norte 5 Norte 0 959.3 -- 89
2021-01-12 06:00:00 -11.8 4 Norte 5 Norte 0 958.6 -- 89
2021-01-12 05:00:00 -11.5 3 Norte 5 Norte 0 958.8 -- 89
2021-01-12 04:00:00 -11.1 0 Calma 9 Norte 0 959 -- 90
2021-01-12 03:00:00 -10.8 5 Norte 8 Norte 0 958.6 -- 92
2021-01-12 02:00:00 -9.5 5 Norte 9 Norte 0 958.4 -- 92
2021-01-12 01:00:00 -9.5 6 Norte 8 Norte 0 958 -- 92
2021-01-12 00:00:00 -8.2 0 Calma 8 Norte 0 957.6 -- 93
2021-01-11 23:00:00 -7.1 3 Norte 5 Norte 0 957.1 -- 92
2021-01-11 22:00:00 -6.2 2 Norte 5 Norte 0 956.4 -- 89
2021-01-11 21:00:00 -4.7 6 Norte 8 Norte 0 956 -- 89
2021-01-11 20:00:00 -3.3 0 Calma 8 Sudeste 0 955.4 -- 83
2021-01-11 19:00:00 -1.7 4 Este 8 Sudeste 0 954.8 -- 77
2021-01-11 18:00:00 1.9 6 Sudeste 8 Sudeste 0 954.2 -- 65
2021-01-11 17:00:00 5.9 0 Calma 5 Sur 0 953.7 -- 49
2021-01-11 16:00:00 4.6 0 Calma 8 Sudoeste 0 953.4 -- 52
2021-01-11 15:00:00 2.9 0 Calma 13 Sudoeste 0 952.9 -- 56
2021-01-11 14:00:00 1.8 6 Sur 11 Sudeste 0 952.9 -- 61
2021-01-11 13:00:00 -1.6 0 Calma 8 Oeste 0 953.4 -- 72
2021-01-11 12:00:00 -4.7 2 Norte 9 Noroeste 0 953.9 -- 82
2021-01-11 11:00:00 -6.8 3 Noroeste 8 Noroeste 0 953.7 -- 88
2021-01-11 10:00:00 -7.1 7 Norte 11 Noroeste 0 952.7 -- 92
2021-01-11 09:00:00 -8.9 5 Noroeste 9 Norte 0 952 -- 92
2021-01-11 08:00:00 -7.8 5 Norte 8 Norte 0 951.2 -- 94
2021-01-11 07:00:00 -6.7 2 Oeste 5 Sur 0 950.8 -- 89
2021-01-11 06:00:00 -6.2 0 Calma 8 Sudeste 0 950.3 -- 84
2021-01-11 05:00:00 -4.2 0 Calma 8 Norte 0 950 -- 84
2021-01-11 04:00:00 -3.1 5 Norte 11 Nordeste 0 949.8 -- 82
2021-01-11 03:00:00 -2.5 4 Norte 13 Norte 0 949.6 -- 85
2021-01-11 02:00:00 -1.8 5 Norte 13 Noroeste 0 949.2 -- 85
2021-01-11 01:00:00 -0.2 4 Norte 15 Norte 0 948.8 -- 85
2021-01-11 00:00:00 0.5 11 Norte 17 Norte 0 948.8 -- 83
2021-01-10 23:00:00 0.6 11 Norte 17 Norte 0 948.6 -- 85
2021-01-10 22:00:00 0.4 7 Noroeste 11 Norte 0 948.3 -- 90
2021-01-10 21:00:00 0.8 8 Norte 11 Noroeste 0 947.9 -- 89
2021-01-10 20:00:00 1 7 Norte 9 Noroeste 0 947.3 -- 89
2021-01-10 19:00:00 1.6 4 Nordeste 9 Norte 0 946.6 -- 88
2021-01-10 18:00:00 3.3 3 Este 13 Nordeste 0 946 -- 82
2021-01-10 17:00:00 3.9 4 Este 18 Nordeste 0 945.4 -- 75
2021-01-10 16:00:00 3 8 Nordeste 21 Este 0 944.9 -- 77
2021-01-10 15:00:00 3.9 11 Nordeste 26 Nordeste 0 944.2 -- 73
2021-01-10 14:00:00 2.9 13 Nordeste 28 Nordeste 0 944.1 -- 75
2021-01-10 13:00:00 2.9 12 Nordeste 35 Nordeste 0 944.1 -- 76
2021-01-10 12:00:00 2.1 15 Norte 35 Nordeste 0 944.1 -- 77
2021-01-10 11:00:00 1.5 18 Nordeste 32 Este 0 943.7 -- 78
2021-01-10 10:00:00 0.6 14 Nordeste 24 Nordeste 0 942.6 -- 84
2021-01-10 09:00:00 0.6 14 Nordeste 30 Nordeste 0 941.9 -- 86
2021-01-10 08:00:00 -0.3 9 Nordeste 28 Nordeste 0 941.4 -- 92
2021-01-10 07:00:00 -1.8 0 Calma -- -- 0 940.9 -- 94
2021-01-10 06:00:00 -2.3 0 Calma -- -- 0 940.3 -- 93
2021-01-10 05:00:00 -1 0 Calma -- -- 0 940.3 -- 96
2021-01-10 04:00:00 -1.5 0 Calma 4 Nordeste 0 940.4 -- 97
2021-01-10 03:00:00 -0.1 4 Norte 11 Noroeste 0 940.2 -- 98
2021-01-10 02:00:00 0.2 7 Norte 13 Noroeste 0 940 -- 98
2021-01-10 01:00:00 0.2 8 Norte 13 Noroeste 0 939.9 -- 98
2021-01-10 00:00:00 0.3 7 Noroeste 9 Norte 0 940 -- 99
2021-01-09 23:00:00 0 4 Nordeste 8 Este 0 939.8 -- 99
2021-01-09 22:00:00 0 5 Norte -- -- 0 939.2 -- 99
2021-01-09 21:00:00 0 7 Noroeste -- -- 0 938.5 -- 99
2021-01-09 20:00:00 0 3 Norte 8 Norte 0 938 -- 99
2021-01-09 19:00:00 0 5 Norte -- -- 0 937.2 -- 99
2021-01-09 18:00:00 0 0 Calma 8 Sudeste 0.3 936.6 -- 98
2021-01-09 17:00:00 0 6 Sudeste 9 Este 0.5 935.7 -- 98
2021-01-09 16:00:00 -0.1 6 Este 21 Nordeste 1.8 935 -- 98
2021-01-09 15:00:00 -0.1 8 Este 22 Nordeste 1.9 934.4 -- 98
2021-01-09 14:00:00 -0.2 9 Este 24 Este 4 934.4 -- 97
2021-01-09 13:00:00 -0.4 10 Nordeste 26 Nordeste 1.6 934.8 -- 97
2021-01-09 12:00:00 -0.7 13 Nordeste 32 Nordeste 1.4 935.6 -- 97
2021-01-09 11:00:00 -0.9 15 Nordeste 37 Este 0.4 935.6 -- 96
2021-01-09 10:00:00 -1.1 17 Nordeste 35 Nordeste 0.6 935.5 -- 97
2021-01-09 09:00:00 -1.3 20 Nordeste 39 Norte 1 935.2 -- 97
2021-01-09 08:00:00 -1.3 19 Nordeste 41 Nordeste 0.4 934.9 -- 96
2021-01-09 07:00:00 -1.2 24 Norte 45 Nordeste 0.7 934.8 -- 97
2021-01-09 06:00:00 -1.2 25 Norte 50 Nordeste 1 935 -- 97
2021-01-09 05:00:00 -1.2 22 Norte 45 Nordeste 1 935.2 -- 97
2021-01-09 04:00:00 -1.2 21 Nordeste 41 Nordeste 1 935.7 -- 97
2021-01-09 03:00:00 -1.2 21 Nordeste 42 Norte 1.1 935.9 -- 97
2021-01-09 02:00:00 -1.1 21 Nordeste 39 Nordeste 0.9 936.2 -- 97
2021-01-09 01:00:00 -0.8 20 Nordeste 35 Nordeste 0.5 936.7 -- 97
2021-01-09 00:00:00 -0.6 21 Nordeste 37 Nordeste 1.4 937 -- 97
2021-01-08 23:00:00 -0.5 17 Nordeste 30 Nordeste 1.7 937.8 -- 97
2021-01-08 22:00:00 -0.5 15 Nordeste 32 Norte 1.1 938.4 -- 97
2021-01-08 21:00:00 -0.4 16 Nordeste 32 Este 1.6 938.4 -- 97
2021-01-08 20:00:00 -0.1 15 Nordeste 33 Nordeste 1.6 938.7 -- 96
2021-01-08 19:00:00 0 17 Norte 33 Nordeste 1.5 938.6 -- 96
2021-01-08 18:00:00 0.4 19 Norte 33 Nordeste 1.4 938.7 -- 95
2021-01-08 17:00:00 0.5 16 Norte 30 Norte 1.3 939.2 -- 95
2021-01-08 16:00:00 0.5 13 Norte 24 Norte 1.2 939.3 -- 95
2021-01-08 15:00:00 0.6 6 Norte 17 Norte 0.4 940.1 -- 93
2021-01-08 14:00:00 0.3 12 Norte 18 Norte 1.1 940.6 -- 93
2021-01-08 13:00:00 0.2 10 Norte 15 Norte 0.4 941.9 -- 89
2021-01-08 12:00:00 0 4 Nordeste 8 Nordeste 0 942.7 -- 82
2021-01-08 11:00:00 -0.6 0 Calma 9 Norte 0 943.5 -- 80
2021-01-08 10:00:00 -1.6 8 Norte 15 Norte 0 943.2 -- 78
2021-01-08 09:00:00 -2.1 9 Norte 15 Noroeste 0 942.5 -- 79
2021-01-08 08:00:00 -2.3 12 Noroeste 17 Norte 0 942.6 -- 81
2021-01-08 07:00:00 -2.7 12 Norte 17 Norte 0 942.5 -- 80
2021-01-08 06:00:00 -2.7 14 Noroeste 18 Norte 0 943 -- 80
2021-01-08 05:00:00 -2.8 10 Noroeste 15 Noroeste 0 943.4 -- 81
2021-01-08 04:00:00 -3.1 12 Noroeste 17 Norte 0 943.9 -- 81
2021-01-08 03:00:00 -4.3 9 Noroeste 13 Norte 0 944.1 -- 84
2021-01-08 02:00:00 -3.8 10 Norte 18 Norte 0 944.1 -- 84
2021-01-08 01:00:00 -4 12 Noroeste 17 Noroeste 0 944.3 -- 86
2021-01-08 00:00:00 -4.2 10 Noroeste 13 Noroeste 0 944.5 -- 84
2021-01-07 23:00:00 -2.5 10 Noroeste 18 Noroeste 0 944.6 -- 80
2021-01-07 22:00:00 -1.5 5 Norte 15 Norte 0 944.2 -- 82
2021-01-07 21:00:00 -1 12 Norte 18 Norte 0 944.5 -- 87
2021-01-07 20:00:00 -0.3 11 Noroeste 13 Norte 0 944.7 -- 93
2021-01-07 19:00:00 0 12 Norte 15 Norte 0 944.6 -- 94
2021-01-07 18:00:00 0.5 4 Nordeste 9 Nordeste 0 944.6 -- 92
2021-01-07 17:00:00 0.4 5 Nordeste 11 Norte 0.3 944.5 -- 94
2021-01-07 16:00:00 0.2 8 Norte 13 Norte 0.8 944.3 -- 95
2021-01-07 15:00:00 0.2 8 Norte 13 Norte 0.6 943.9 -- 95
2021-01-07 14:00:00 0.2 9 Norte 11 Norte 1.1 943.8 -- 93
2021-01-07 13:00:00 0.6 5 Norte 9 Nordeste 0.6 944.6 -- 88
2021-01-07 12:00:00 1.7 7 Este 15 Este 0 944.8 -- 68
2021-01-07 11:00:00 1.6 9 Norte 15 Norte 0 944.8 -- 64
2021-01-07 10:00:00 1 9 Norte 24 Norte 0 944.4 -- 65
2021-01-07 09:00:00 0.8 12 Norte 18 Norte 0 943.8 -- 66
2021-01-07 08:00:00 0.4 5 Nordeste 11 Noroeste 0 943.8 -- 69
2021-01-07 07:00:00 -0.5 4 Norte 9 Norte 0 943.4 -- 74
2021-01-07 06:00:00 -0.8 7 Norte 11 Norte 0 943.2 -- 75
2021-01-07 05:00:00 -0.9 6 Norte 13 Norte 0 943.4 -- 75
2021-01-07 04:00:00 -0.8 10 Noroeste 13 Norte 0 943.7 -- 75
2021-01-07 03:00:00 -1.1 10 Noroeste 13 Norte 0 943.9 -- 76
2021-01-07 02:00:00 -0.8 12 Noroeste 15 Norte 0 943.8 -- 74
2021-01-07 01:00:00 0.2 9 Norte 17 Norte 0 944.1 -- 67
2021-01-07 00:00:00 0.7 13 Noroeste 21 Norte 0 944.1 -- 65
2021-01-06 23:00:00 -0.1 7 Norte 11 Norte 0 944.4 -- 70
2021-01-06 22:00:00 0.1 9 Norte 15 Norte 0 944.8 -- 71
2021-01-06 21:00:00 0.1 3 Norte 9 Noroeste 0 945 -- 69
2021-01-06 20:00:00 0.7 0 Calma -- -- 0 945 -- 64
2021-01-06 19:00:00 1.1 6 Norte -- -- 0 944.8 -- 63
2021-01-06 18:00:00 2.9 4 Norte -- -- 0 944.4 -- 57
2021-01-06 17:00:00 6.3 3 Este 13 Nordeste 0 944 -- 44
2021-01-06 16:00:00 6.7 5 Nordeste 13 Nordeste 0 943.8 -- 44
2021-01-06 15:00:00 6.5 5 Nordeste 11 Nordeste 0 944.1 -- 46
2021-01-06 14:00:00 5.9 5 Norte 9 Noroeste 0 944.6 -- 53
2021-01-06 13:00:00 3.5 6 Noroeste 13 Oeste 0 945.4 -- 65
2021-01-06 12:00:00 0.5 6 Noroeste 11 Norte 0 946.3 -- 72
2021-01-06 11:00:00 -2.1 5 Noroeste 9 Oeste 0 946.6 -- 79
2021-01-06 10:00:00 -4.8 3 Norte 5 Norte 0 946.2 -- 90
2021-01-06 09:00:00 -6.8 4 Norte 5 Norte 0 945.6 -- 91
2021-01-06 08:00:00 -6.4 4 Norte -- -- 0 945.1 -- 91
2021-01-06 07:00:00 -6.4 4 Norte 9 Norte 0 944.5 -- 89
2021-01-06 06:00:00 -6 4 Norte 9 Norte 0 944.1 -- 89
2021-01-06 05:00:00 -5.7 4 Norte 8 Norte 0 944.2 -- 89
2021-01-06 04:00:00 -5.4 7 Noroeste 8 Noroeste 0 944.4 -- 89
2021-01-06 03:00:00 -4.8 7 Noroeste 13 Norte 0 944.4 -- 86
2021-01-06 02:00:00 -4.2 5 Norte 9 Norte 0 944 -- 86
2021-01-06 01:00:00 -3.6 5 Norte 9 Norte 0 944.1 -- 83
2021-01-06 00:00:00 -3.3 6 Norte 9 Norte 0 943.8 -- 83
2021-01-05 23:00:00 -2.8 6 Norte 8 Norte 0 943.7 -- 81
2021-01-05 22:00:00 -2.7 7 Norte 11 Norte 0 943.7 -- 80
2021-01-05 21:00:00 -1.5 5 Sudeste 8 Sudeste 0 943.7 -- 73
2021-01-05 20:00:00 0.1 4 Sudoeste 13 Sudoeste 0 943.4 -- 65
2021-01-05 19:00:00 2.2 6 Sur 13 Sudoeste 0 943.1 -- 58
2021-01-05 18:00:00 3.6 4 Sur 11 Sudoeste 0 942.9 -- 54
2021-01-05 17:00:00 5.9 6 Sudoeste 15 Sudoeste 0 942.5 -- 46
2021-01-05 16:00:00 6.5 4 Sur 11 Sudoeste 0 942.5 -- 42
2021-01-05 15:00:00 5.9 6 Sur 17 Sur 0 942.7 -- 47
2021-01-05 14:00:00 5.2 6 Sur 13 Sur 0 943.2 -- 51
2021-01-05 13:00:00 4.2 7 Sur 13 Sudoeste 0 944 -- 59
2021-01-05 12:00:00 2.2 2 Sudeste 9 Sudoeste 0 944.9 -- 67
2021-01-05 11:00:00 -0.2 3 Sudeste 9 Sudeste 0 945.2 -- 77
2021-01-05 10:00:00 -3.3 0 Calma 8 Norte 0 944.9 -- 90
2021-01-05 09:00:00 -6.1 5 Norte 8 Norte 0 944.3 -- 92
2021-01-05 08:00:00 -5.9 4 Norte 8 Norte 0 943.8 -- 91
2021-01-05 07:00:00 -5.3 5 Norte 8 Norte 0 943.4 -- 90
2021-01-05 06:00:00 -4.7 6 Norte 9 Norte 0 943.3 -- 88
2021-01-05 05:00:00 -4.4 0 Calma 8 Noroeste 0 943.4 -- 86
2021-01-05 04:00:00 -3.6 6 Norte 8 Norte 0 943.6 -- 87
2021-01-05 03:00:00 -3.3 3 Norte 9 Nordeste 0 943.3 -- 86
2021-01-05 02:00:00 -3 5 Sur 5 Sur 0 943.3 -- 84
2021-01-05 01:00:00 -2 5 Norte 8 Norte 0 943.5 -- 80
2021-01-05 00:00:00 -1.2 2 Norte 9 Nordeste 0 943.6 -- 78
2021-01-04 23:00:00 -0.5 6 Sudeste 9 Este 0 943.4 -- 73
2021-01-04 22:00:00 0 3 Norte 9 Oeste 0 943 -- 70
2021-01-04 21:00:00 1.2 0 Calma 13 Oeste 0 942.6 -- 64
2021-01-04 20:00:00 1.9 13 Noroeste 18 Oeste 0 942.5 -- 63
2021-01-04 19:00:00 4.1 18 Noroeste 28 Oeste 0 942.1 -- 54
2021-01-04 18:00:00 4.5 17 Oeste 32 Oeste 0 941.6 -- 48
2021-01-04 17:00:00 6.2 19 Oeste 35 Oeste 0 941.3 -- 46
2021-01-04 16:00:00 6.5 22 Oeste 37 Oeste 0 941.3 -- 43
2021-01-04 15:00:00 6.9 19 Oeste 32 Oeste 0 941.1 -- 44
2021-01-04 14:00:00 5.3 18 Oeste 32 Sudoeste 0 941.6 -- 49
2021-01-04 13:00:00 6.3 15 Oeste 30 Sudoeste 0 942.2 -- 48
2021-01-04 12:00:00 5.1 12 Oeste 24 Sudoeste 0 943.2 -- 52
2021-01-04 11:00:00 4 14 Oeste 24 Oeste 0 943.8 -- 55
2021-01-04 10:00:00 2.5 16 Oeste 26 Oeste 0 943.9 -- 63
2021-01-04 09:00:00 -0.5 13 Oeste 18 Oeste 0 943.7 -- 76
2021-01-04 08:00:00 1.3 12 Oeste 26 Oeste 0 943.8 -- 67
2021-01-04 07:00:00 1.3 13 Oeste 22 Oeste 0 943.5 -- 70
2021-01-04 06:00:00 -1.8 5 Sudeste 11 Sudeste 0 943.4 -- 90
2021-01-04 05:00:00 -1.1 8 Este 13 Este 0 943.8 -- 91
2021-01-04 04:00:00 -1 10 Este 13 Este 0 944.1 -- 88
2021-01-04 03:00:00 0.1 4 Sudeste 13 Sur 0 943.9 -- 82
2021-01-04 02:00:00 0.5 10 Sudeste 13 Sudeste 0 944 -- 78
2021-01-04 01:00:00 2.8 9 Sudoeste 17 Oeste 0 944.3 -- 64
2021-01-04 00:00:00 3.2 14 Sudoeste 26 Oeste 0 944.9 -- 63
2021-01-03 23:00:00 3.2 13 Sur 30 Oeste 0 945.2 -- 63
2021-01-03 22:00:00 3 18 Sudoeste 30 Sudoeste 0 945.3 -- 64
2021-01-03 21:00:00 3.3 19 Oeste 32 Oeste 0 945.1 -- 62
2021-01-03 20:00:00 3.5 14 Oeste 30 Oeste 0 945.5 -- 61
2021-01-03 19:00:00 4.2 14 Oeste 26 Oeste 0 945.4 -- 61
2021-01-03 18:00:00 5.4 20 Sudoeste 30 Sudoeste 0 944.8 -- 54
2021-01-03 17:00:00 7.2 16 Oeste 33 Oeste 0 944.7 -- 45
2021-01-03 16:00:00 8.4 20 Oeste 35 Oeste 0 944.8 -- 42
2021-01-03 15:00:00 8.5 15 Sudoeste 24 Sudoeste 0 945.2 -- 46
2021-01-03 14:00:00 7.2 5 Sur 15 Sudeste 0 945.7 -- 50
2021-01-03 13:00:00 5.2 10 Sudeste 15 Sudeste 0 946.7 -- 59
2021-01-03 12:00:00 2.7 8 Sudeste 13 Sudeste 0 947.6 -- 69
2021-01-03 11:00:00 0.2 7 Sudeste 11 Este 0 948 -- 73
2021-01-03 10:00:00 -3.4 8 Sudeste 11 Sudeste 0 947.9 -- 87
2021-01-03 09:00:00 -4.3 3 Este 5 Este 0 947.5 -- 87
2021-01-03 08:00:00 -4.3 2 Sudeste 9 Nordeste 0 947.4 -- 86
2021-01-03 07:00:00 -4.5 0 Calma 9 Sudoeste 0 947.2 -- 86
2021-01-03 06:00:00 -4.7 0 Calma 5 Este 0 947.3 -- 86
2021-01-03 05:00:00 -4.3 4 Este 11 Norte 0 947.3 -- 86
2021-01-03 04:00:00 -3.8 2 Sudeste 9 Sudeste 0 947.2 -- 81
2021-01-03 03:00:00 -3.1 4 Sudeste 9 Nordeste 0 947.3 -- 80
2021-01-03 02:00:00 -2.5 3 Sudeste 9 Oeste 0 947.2 -- 78
2021-01-03 01:00:00 -2.2 3 Norte 11 Oeste 0 947.4 -- 76
2021-01-03 00:00:00 -0.8 5 Noroeste 13 Norte 0 947.6 -- 69
2021-01-02 23:00:00 -1.6 3 Nordeste 9 Nordeste 0 947.4 -- 69
2021-01-02 22:00:00 -0.8 6 Sudeste 11 Sur 0 947.1 -- 65
2021-01-02 21:00:00 -0.9 5 Nordeste 13 Norte 0 947.1 -- 69
2021-01-02 20:00:00 -0.6 0 Calma 13 Norte 0 946.6 -- 69
2021-01-02 19:00:00 1 3 Noroeste 11 Norte 0 946.7 -- 62
2021-01-02 18:00:00 2.9 5 Nordeste 21 Noroeste 0 946.6 -- 56
2021-01-02 17:00:00 3.1 16 Noroeste 30 Norte 0 945.8 -- 55
2021-01-02 16:00:00 3.7 23 Norte 33 Norte 0 945.6 -- 53
2021-01-02 15:00:00 4 21 Noroeste 39 Nordeste 0 945.2 -- 51
2021-01-02 14:00:00 4.7 22 Norte 37 Norte 0 944.5 -- 50